sensor_id;sensor_type;location;lat;lon;timestamp;P1;durP1;ratioP1;P2;durP2;ratioP2
6043;SDS011;3050;42.660;23.276;2024-02-21T00:00:24;2.03;;;1.93;;
6043;SDS011;3050;42.660;23.276;2024-02-21T00:02:52;2.07;;;1.80;;
6043;SDS011;3050;42.660;23.276;2024-02-21T00:05:19;2.07;;;1.97;;
6043;SDS011;3050;42.660;23.276;2024-02-21T00:07:47;2.60;;;1.77;;
6043;SDS011;3050;42.660;23.276;2024-02-21T00:10:14;1.47;;;1.37;;
6043;SDS011;3050;42.660;23.276;2024-02-21T00:12:42;1.80;;;1.70;;
6043;SDS011;3050;42.660;23.276;2024-02-21T00:15:12;1.30;;;1.00;;
6043;SDS011;3050;42.660;23.276;2024-02-21T00:17:39;0.70;;;0.70;;
6043;SDS011;3050;42.660;23.276;2024-02-21T00:20:06;1.87;;;1.63;;
6043;SDS011;3050;42.660;23.276;2024-02-21T00:22:34;3.70;;;1.90;;
6043;SDS011;3050;42.660;23.276;2024-02-21T00:25:02;1.67;;;1.20;;
6043;SDS011;3050;42.660;23.276;2024-02-21T00:27:29;1.27;;;1.17;;
6043;SDS011;3050;42.660;23.276;2024-02-21T00:29:59;2.10;;;1.47;;
6043;SDS011;3050;42.660;23.276;2024-02-21T00:32:26;1.30;;;1.20;;
6043;SDS011;3050;42.660;23.276;2024-02-21T00:34:54;1.00;;;1.00;;
6043;SDS011;3050;42.660;23.276;2024-02-21T00:37:20;1.33;;;1.33;;
6043;SDS011;3050;42.660;23.276;2024-02-21T00:39:48;2.70;;;1.87;;
6043;SDS011;3050;42.660;23.276;2024-02-21T00:42:15;2.07;;;1.87;;
6043;SDS011;3050;42.660;23.276;2024-02-21T00:44:44;1.40;;;1.30;;
6043;SDS011;3050;42.660;23.276;2024-02-21T00:47:13;1.93;;;1.83;;
6043;SDS011;3050;42.660;23.276;2024-02-21T00:49:41;1.77;;;1.67;;
6043;SDS011;3050;42.660;23.276;2024-02-21T00:52:09;1.53;;;1.20;;
6043;SDS011;3050;42.660;23.276;2024-02-21T00:54:36;3.13;;;1.70;;
6043;SDS011;3050;42.660;23.276;2024-02-21T00:57:04;1.97;;;1.87;;
6043;SDS011;3050;42.660;23.276;2024-02-21T00:59:32;2.47;;;1.77;;
6043;SDS011;3050;42.660;23.276;2024-02-21T01:02:00;2.03;;;1.93;;
6043;SDS011;3050;42.660;23.276;2024-02-21T01:04:28;6.10;;;1.97;;
6043;SDS011;3050;42.660;23.276;2024-02-21T01:06:55;1.47;;;1.37;;
6043;SDS011;3050;42.660;23.276;2024-02-21T01:09:24;1.97;;;1.47;;
6043;SDS011;3050;42.660;23.276;2024-02-21T01:11:51;1.63;;;1.30;;
6043;SDS011;3050;42.660;23.276;2024-02-21T01:14:18;1.73;;;1.63;;
6043;SDS011;3050;42.660;23.276;2024-02-21T01:16:45;1.17;;;1.17;;
6043;SDS011;3050;42.660;23.276;2024-02-21T01:19:13;2.33;;;2.10;;
6043;SDS011;3050;42.660;23.276;2024-02-21T01:21:42;1.73;;;1.43;;
6043;SDS011;3050;42.660;23.276;2024-02-21T01:24:10;1.60;;;1.50;;
6043;SDS011;3050;42.660;23.276;2024-02-21T01:26:38;1.43;;;1.33;;
6043;SDS011;3050;42.660;23.276;2024-02-21T01:29:06;4.60;;;1.47;;
6043;SDS011;3050;42.660;23.276;2024-02-21T01:31:33;1.70;;;1.60;;
6043;SDS011;3050;42.660;23.276;2024-02-21T01:34:02;2.27;;;1.70;;
6043;SDS011;3050;42.660;23.276;2024-02-21T01:36:30;5.13;;;2.47;;
6043;SDS011;3050;42.660;23.276;2024-02-21T01:38:59;2.67;;;1.90;;
6043;SDS011;3050;42.660;23.276;2024-02-21T01:41:29;1.53;;;1.43;;
6043;SDS011;3050;42.660;23.276;2024-02-21T01:43:56;1.83;;;1.73;;
6043;SDS011;3050;42.660;23.276;2024-02-21T01:46:24;1.87;;;1.70;;
6043;SDS011;3050;42.660;23.276;2024-02-21T01:48:54;3.40;;;2.23;;
6043;SDS011;3050;42.660;23.276;2024-02-21T01:51:21;5.57;;;2.33;;
6043;SDS011;3050;42.660;23.276;2024-02-21T01:53:50;1.97;;;1.83;;
6043;SDS011;3050;42.660;23.276;2024-02-21T01:56:21;4.80;;;2.60;;
6043;SDS011;3050;42.660;23.276;2024-02-21T01:58:49;2.77;;;2.47;;
6043;SDS011;3050;42.660;23.276;2024-02-21T02:01:16;3.30;;;2.97;;
6043;SDS011;3050;42.660;23.276;2024-02-21T02:03:45;2.60;;;2.50;;
6043;SDS011;3050;42.660;23.276;2024-02-21T02:06:13;2.87;;;2.67;;
6043;SDS011;3050;42.660;23.276;2024-02-21T02:08:42;5.67;;;3.23;;
6043;SDS011;3050;42.660;23.276;2024-02-21T02:11:09;3.97;;;2.77;;
6043;SDS011;3050;42.660;23.276;2024-02-21T02:13:38;3.27;;;3.07;;
6043;SDS011;3050;42.660;23.276;2024-02-21T02:16:05;2.77;;;2.30;;
6043;SDS011;3050;42.660;23.276;2024-02-21T02:18:33;4.37;;;2.50;;
6043;SDS011;3050;42.660;23.276;2024-02-21T02:21:00;6.00;;;2.70;;
6043;SDS011;3050;42.660;23.276;2024-02-21T02:23:29;5.87;;;4.03;;
6043;SDS011;3050;42.660;23.276;2024-02-21T02:25:57;2.53;;;2.20;;
6043;SDS011;3050;42.660;23.276;2024-02-21T02:28:26;6.43;;;3.40;;
6043;SDS011;3050;42.660;23.276;2024-02-21T02:30:53;3.73;;;3.33;;
6043;SDS011;3050;42.660;23.276;2024-02-21T02:33:22;3.07;;;2.60;;
6043;SDS011;3050;42.660;23.276;2024-02-21T02:35:50;4.67;;;2.43;;
6043;SDS011;3050;42.660;23.276;2024-02-21T02:38:17;9.47;;;3.43;;
6043;SDS011;3050;42.660;23.276;2024-02-21T02:40:46;4.50;;;2.53;;
6043;SDS011;3050;42.660;23.276;2024-02-21T02:43:14;2.20;;;2.00;;
6043;SDS011;3050;42.660;23.276;2024-02-21T02:45:42;2.87;;;2.63;;
6043;SDS011;3050;42.660;23.276;2024-02-21T02:48:09;6.40;;;3.67;;
6043;SDS011;3050;42.660;23.276;2024-02-21T02:50:36;5.67;;;3.13;;
6043;SDS011;3050;42.660;23.276;2024-02-21T02:53:04;3.63;;;3.03;;
6043;SDS011;3050;42.660;23.276;2024-02-21T02:55:31;2.97;;;2.77;;
6043;SDS011;3050;42.660;23.276;2024-02-21T02:58:01;5.10;;;2.50;;
6043;SDS011;3050;42.660;23.276;2024-02-21T03:00:27;5.17;;;2.93;;
6043;SDS011;3050;42.660;23.276;2024-02-21T03:02:55;3.10;;;2.90;;
6043;SDS011;3050;42.660;23.276;2024-02-21T03:05:22;3.07;;;2.80;;
6043;SDS011;3050;42.660;23.276;2024-02-21T03:07:50;4.17;;;2.50;;
6043;SDS011;3050;42.660;23.276;2024-02-21T03:10:19;3.50;;;3.00;;
6043;SDS011;3050;42.660;23.276;2024-02-21T03:12:47;3.33;;;3.03;;
6043;SDS011;3050;42.660;23.276;2024-02-21T03:15:16;5.77;;;3.37;;
6043;SDS011;3050;42.660;23.276;2024-02-21T03:17:43;5.20;;;3.00;;
6043;SDS011;3050;42.660;23.276;2024-02-21T03:20:10;6.17;;;3.87;;
6043;SDS011;3050;42.660;23.276;2024-02-21T03:22:38;4.30;;;3.87;;
6043;SDS011;3050;42.660;23.276;2024-02-21T03:25:07;3.40;;;3.10;;
6043;SDS011;3050;42.660;23.276;2024-02-21T03:27:34;5.27;;;3.23;;
6043;SDS011;3050;42.660;23.276;2024-02-21T03:30:02;2.83;;;2.53;;
6043;SDS011;3050;42.660;23.276;2024-02-21T03:32:31;3.60;;;2.57;;
6043;SDS011;3050;42.660;23.276;2024-02-21T03:34:58;3.50;;;3.20;;
6043;SDS011;3050;42.660;23.276;2024-02-21T03:37:26;5.90;;;3.17;;
6043;SDS011;3050;42.660;23.276;2024-02-21T03:39:54;3.00;;;2.40;;
6043;SDS011;3050;42.660;23.276;2024-02-21T03:42:22;4.73;;;3.80;;
6043;SDS011;3050;42.660;23.276;2024-02-21T03:44:50;4.07;;;3.70;;
6043;SDS011;3050;42.660;23.276;2024-02-21T03:47:18;3.00;;;2.73;;
6043;SDS011;3050;42.660;23.276;2024-02-21T03:49:48;8.70;;;3.07;;
6043;SDS011;3050;42.660;23.276;2024-02-21T03:52:16;7.57;;;3.27;;
6043;SDS011;3050;42.660;23.276;2024-02-21T03:54:43;3.87;;;2.53;;
6043;SDS011;3050;42.660;23.276;2024-02-21T03:57:10;3.70;;;2.30;;
6043;SDS011;3050;42.660;23.276;2024-02-21T03:59:38;3.13;;;2.67;;
6043;SDS011;3050;42.660;23.276;2024-02-21T04:02:07;4.67;;;4.00;;
6043;SDS011;3050;42.660;23.276;2024-02-21T04:04:35;6.57;;;3.57;;
6043;SDS011;3050;42.660;23.276;2024-02-21T04:07:04;3.93;;;3.27;;
6043;SDS011;3050;42.660;23.276;2024-02-21T04:09:32;5.77;;;3.47;;
6043;SDS011;3050;42.660;23.276;2024-02-21T04:12:00;5.70;;;4.47;;
6043;SDS011;3050;42.660;23.276;2024-02-21T04:14:27;7.07;;;3.50;;
6043;SDS011;3050;42.660;23.276;2024-02-21T04:16:54;9.40;;;3.70;;
6043;SDS011;3050;42.660;23.276;2024-02-21T04:19:22;4.90;;;3.20;;
6043;SDS011;3050;42.660;23.276;2024-02-21T04:21:50;4.07;;;3.07;;
6043;SDS011;3050;42.660;23.276;2024-02-21T04:24:22;3.43;;;3.07;;
6043;SDS011;3050;42.660;23.276;2024-02-21T04:26:49;6.70;;;3.47;;
6043;SDS011;3050;42.660;23.276;2024-02-21T04:29:17;5.47;;;3.30;;
6043;SDS011;3050;42.660;23.276;2024-02-21T04:31:44;6.20;;;3.70;;
6043;SDS011;3050;42.660;23.276;2024-02-21T04:34:13;2.43;;;2.33;;
6043;SDS011;3050;42.660;23.276;2024-02-21T04:36:41;9.53;;;3.90;;
6043;SDS011;3050;42.660;23.276;2024-02-21T04:39:08;4.50;;;3.47;;
6043;SDS011;3050;42.660;23.276;2024-02-21T04:41:38;4.67;;;3.37;;
6043;SDS011;3050;42.660;23.276;2024-02-21T04:44:05;6.23;;;3.43;;
6043;SDS011;3050;42.660;23.276;2024-02-21T04:46:32;6.70;;;4.27;;
6043;SDS011;3050;42.660;23.276;2024-02-21T04:49:00;6.87;;;4.70;;
6043;SDS011;3050;42.660;23.276;2024-02-21T04:51:28;5.73;;;2.90;;
6043;SDS011;3050;42.660;23.276;2024-02-21T04:53:56;4.00;;;3.43;;
6043;SDS011;3050;42.660;23.276;2024-02-21T04:56:22;8.57;;;4.07;;
6043;SDS011;3050;42.660;23.276;2024-02-21T04:58:54;7.97;;;3.70;;
6043;SDS011;3050;42.660;23.276;2024-02-21T05:01:22;8.03;;;4.50;;
6043;SDS011;3050;42.660;23.276;2024-02-21T05:03:50;3.07;;;2.83;;
6043;SDS011;3050;42.660;23.276;2024-02-21T05:06:17;10.37;;;3.50;;
6043;SDS011;3050;42.660;23.276;2024-02-21T05:08:45;6.63;;;2.93;;
6043;SDS011;3050;42.660;23.276;2024-02-21T05:11:12;6.97;;;3.80;;
6043;SDS011;3050;42.660;23.276;2024-02-21T05:13:42;6.77;;;4.13;;
6043;SDS011;3050;42.660;23.276;2024-02-21T05:16:12;11.20;;;4.83;;
6043;SDS011;3050;42.660;23.276;2024-02-21T05:18:45;7.13;;;3.43;;
6043;SDS011;3050;42.660;23.276;2024-02-21T05:21:12;5.63;;;4.53;;
6043;SDS011;3050;42.660;23.276;2024-02-21T05:23:42;9.13;;;4.70;;
6043;SDS011;3050;42.660;23.276;2024-02-21T05:26:14;5.03;;;2.70;;
6043;SDS011;3050;42.660;23.276;2024-02-21T05:28:50;7.33;;;4.50;;
6043;SDS011;3050;42.660;23.276;2024-02-21T05:31:22;8.07;;;3.73;;
6043;SDS011;3050;42.660;23.276;2024-02-21T05:33:58;4.60;;;3.43;;
6043;SDS011;3050;42.660;23.276;2024-02-21T05:36:29;9.33;;;3.70;;
6043;SDS011;3050;42.660;23.276;2024-02-21T05:38:59;5.73;;;3.60;;
6043;SDS011;3050;42.660;23.276;2024-02-21T05:41:26;7.53;;;5.63;;
6043;SDS011;3050;42.660;23.276;2024-02-21T05:43:53;5.83;;;4.63;;
6043;SDS011;3050;42.660;23.276;2024-02-21T05:46:24;8.67;;;4.10;;
6043;SDS011;3050;42.660;23.276;2024-02-21T05:48:53;4.77;;;3.17;;
6043;SDS011;3050;42.660;23.276;2024-02-21T05:51:21;6.20;;;3.93;;
6043;SDS011;3050;42.660;23.276;2024-02-21T05:53:48;6.57;;;3.93;;
6043;SDS011;3050;42.660;23.276;2024-02-21T05:56:15;5.90;;;3.47;;
6043;SDS011;3050;42.660;23.276;2024-02-21T05:58:44;3.43;;;3.17;;
6043;SDS011;3050;42.660;23.276;2024-02-21T06:01:12;10.33;;;4.07;;
6043;SDS011;3050;42.660;23.276;2024-02-21T06:03:42;3.37;;;3.00;;
6043;SDS011;3050;42.660;23.276;2024-02-21T06:06:09;4.80;;;4.20;;
6043;SDS011;3050;42.660;23.276;2024-02-21T06:08:39;11.23;;;3.80;;
6043;SDS011;3050;42.660;23.276;2024-02-21T06:11:07;6.80;;;4.40;;
6043;SDS011;3050;42.660;23.276;2024-02-21T06:13:37;7.47;;;4.57;;
6043;SDS011;3050;42.660;23.276;2024-02-21T06:16:05;4.27;;;3.37;;
6043;SDS011;3050;42.660;23.276;2024-02-21T06:18:35;4.80;;;3.90;;
6043;SDS011;3050;42.660;23.276;2024-02-21T06:21:06;7.47;;;4.13;;
6043;SDS011;3050;42.660;23.276;2024-02-21T06:23:33;4.83;;;3.57;;
6043;SDS011;3050;42.660;23.276;2024-02-21T06:26:01;6.63;;;3.20;;
6043;SDS011;3050;42.660;23.276;2024-02-21T06:28:28;5.27;;;4.57;;
6043;SDS011;3050;42.660;23.276;2024-02-21T06:30:58;7.40;;;4.17;;
6043;SDS011;3050;42.660;23.276;2024-02-21T06:33:25;3.83;;;3.37;;
6043;SDS011;3050;42.660;23.276;2024-02-21T06:35:52;5.67;;;3.80;;
6043;SDS011;3050;42.660;23.276;2024-02-21T06:38:22;7.07;;;3.70;;
6043;SDS011;3050;42.660;23.276;2024-02-21T06:40:49;7.20;;;4.77;;
6043;SDS011;3050;42.660;23.276;2024-02-21T06:43:18;4.27;;;3.83;;
6043;SDS011;3050;42.660;23.276;2024-02-21T06:45:47;4.83;;;4.13;;
6043;SDS011;3050;42.660;23.276;2024-02-21T06:48:16;5.17;;;3.60;;
6043;SDS011;3050;42.660;23.276;2024-02-21T06:50:43;4.97;;;3.80;;
6043;SDS011;3050;42.660;23.276;2024-02-21T06:53:11;6.60;;;4.97;;
6043;SDS011;3050;42.660;23.276;2024-02-21T06:55:40;5.93;;;3.60;;
6043;SDS011;3050;42.660;23.276;2024-02-21T06:58:08;3.40;;;3.20;;
6043;SDS011;3050;42.660;23.276;2024-02-21T07:00:37;7.63;;;4.10;;
6043;SDS011;3050;42.660;23.276;2024-02-21T07:03:05;8.17;;;4.30;;
6043;SDS011;3050;42.660;23.276;2024-02-21T07:05:34;6.27;;;3.13;;
6043;SDS011;3050;42.660;23.276;2024-02-21T07:08:01;6.53;;;3.80;;
6043;SDS011;3050;42.660;23.276;2024-02-21T07:10:30;5.87;;;3.33;;
6043;SDS011;3050;42.660;23.276;2024-02-21T07:12:59;7.40;;;4.23;;
6043;SDS011;3050;42.660;23.276;2024-02-21T07:15:29;6.03;;;3.13;;
6043;SDS011;3050;42.660;23.276;2024-02-21T07:18:04;9.97;;;5.57;;
6043;SDS011;3050;42.660;23.276;2024-02-21T07:23:24;6.97;;;4.30;;
6043;SDS011;3050;42.660;23.276;2024-02-21T07:25:52;6.30;;;4.30;;
6043;SDS011;3050;42.660;23.276;2024-02-21T07:28:21;4.73;;;3.27;;
6043;SDS011;3050;42.660;23.276;2024-02-21T07:30:48;5.27;;;3.37;;
6043;SDS011;3050;42.660;23.276;2024-02-21T07:33:15;5.73;;;3.67;;
6043;SDS011;3050;42.660;23.276;2024-02-21T07:35:46;6.30;;;4.87;;
6043;SDS011;3050;42.660;23.276;2024-02-21T07:38:13;4.43;;;3.13;;
6043;SDS011;3050;42.660;23.276;2024-02-21T07:40:47;4.73;;;4.03;;
6043;SDS011;3050;42.660;23.276;2024-02-21T07:43:14;6.50;;;4.13;;
6043;SDS011;3050;42.660;23.276;2024-02-21T07:45:44;7.83;;;4.70;;
6043;SDS011;3050;42.660;23.276;2024-02-21T07:48:11;11.53;;;4.73;;
6043;SDS011;3050;42.660;23.276;2024-02-21T07:50:39;9.20;;;4.07;;
6043;SDS011;3050;42.660;23.276;2024-02-21T07:53:07;6.17;;;4.70;;
6043;SDS011;3050;42.660;23.276;2024-02-21T07:55:35;8.07;;;4.63;;
6043;SDS011;3050;42.660;23.276;2024-02-21T07:58:03;7.20;;;4.20;;
6043;SDS011;3050;42.660;23.276;2024-02-21T08:00:34;7.17;;;3.93;;
6043;SDS011;3050;42.660;23.276;2024-02-21T08:03:10;8.97;;;5.43;;
6043;SDS011;3050;42.660;23.276;2024-02-21T08:05:40;5.13;;;3.60;;
6043;SDS011;3050;42.660;23.276;2024-02-21T08:08:08;6.03;;;4.10;;
6043;SDS011;3050;42.660;23.276;2024-02-21T08:10:35;13.87;;;4.37;;
6043;SDS011;3050;42.660;23.276;2024-02-21T08:13:04;7.33;;;4.93;;
6043;SDS011;3050;42.660;23.276;2024-02-21T08:15:33;4.57;;;3.37;;
6043;SDS011;3050;42.660;23.276;2024-02-21T08:18:04;6.83;;;4.77;;
6043;SDS011;3050;42.660;23.276;2024-02-21T08:20:33;3.60;;;3.13;;
6043;SDS011;3050;42.660;23.276;2024-02-21T08:23:00;7.57;;;4.63;;
6043;SDS011;3050;42.660;23.276;2024-02-21T08:25:32;7.13;;;4.17;;
6043;SDS011;3050;42.660;23.276;2024-02-21T08:28:02;9.60;;;4.07;;
6043;SDS011;3050;42.660;23.276;2024-02-21T08:30:30;6.10;;;4.50;;
6043;SDS011;3050;42.660;23.276;2024-02-21T08:33:08;5.83;;;4.73;;
6043;SDS011;3050;42.660;23.276;2024-02-21T08:35:37;8.30;;;4.83;;
6043;SDS011;3050;42.660;23.276;2024-02-21T08:38:06;10.33;;;4.37;;
6043;SDS011;3050;42.660;23.276;2024-02-21T08:40:34;3.73;;;3.17;;
6043;SDS011;3050;42.660;23.276;2024-02-21T08:43:02;4.70;;;3.43;;
6043;SDS011;3050;42.660;23.276;2024-02-21T08:45:30;4.43;;;3.93;;
6043;SDS011;3050;42.660;23.276;2024-02-21T08:47:57;4.63;;;2.90;;
6043;SDS011;3050;42.660;23.276;2024-02-21T08:50:30;3.60;;;3.30;;
6043;SDS011;3050;42.660;23.276;2024-02-21T08:52:59;6.73;;;3.67;;
6043;SDS011;3050;42.660;23.276;2024-02-21T08:55:26;3.87;;;3.37;;
6043;SDS011;3050;42.660;23.276;2024-02-21T08:57:54;4.17;;;3.50;;
6043;SDS011;3050;42.660;23.276;2024-02-21T09:00:22;13.93;;;5.57;;
6043;SDS011;3050;42.660;23.276;2024-02-21T09:02:52;8.40;;;5.03;;
6043;SDS011;3050;42.660;23.276;2024-02-21T09:05:21;5.90;;;4.90;;
6043;SDS011;3050;42.660;23.276;2024-02-21T09:07:50;6.40;;;4.07;;
6043;SDS011;3050;42.660;23.276;2024-02-21T09:10:19;5.60;;;3.70;;
6043;SDS011;3050;42.660;23.276;2024-02-21T09:12:48;5.57;;;4.57;;
6043;SDS011;3050;42.660;23.276;2024-02-21T09:15:18;4.27;;;3.47;;
6043;SDS011;3050;42.660;23.276;2024-02-21T09:17:53;6.03;;;4.50;;
6043;SDS011;3050;42.660;23.276;2024-02-21T09:20:21;2.73;;;2.53;;
6043;SDS011;3050;42.660;23.276;2024-02-21T09:22:49;4.27;;;3.13;;
6043;SDS011;3050;42.660;23.276;2024-02-21T09:25:19;3.63;;;3.27;;
6043;SDS011;3050;42.660;23.276;2024-02-21T09:27:47;5.57;;;4.73;;
6043;SDS011;3050;42.660;23.276;2024-02-21T09:30:14;3.50;;;3.20;;
6043;SDS011;3050;42.660;23.276;2024-02-21T09:32:42;6.20;;;4.00;;
6043;SDS011;3050;42.660;23.276;2024-02-21T09:35:09;7.37;;;3.70;;
6043;SDS011;3050;42.660;23.276;2024-02-21T09:37:38;6.63;;;4.10;;
6043;SDS011;3050;42.660;23.276;2024-02-21T09:40:07;3.87;;;3.37;;
6043;SDS011;3050;42.660;23.276;2024-02-21T09:42:38;5.97;;;3.53;;
6043;SDS011;3050;42.660;23.276;2024-02-21T09:45:07;5.73;;;3.73;;
6043;SDS011;3050;42.660;23.276;2024-02-21T09:47:40;7.57;;;3.97;;
6043;SDS011;3050;42.660;23.276;2024-02-21T09:50:13;5.90;;;5.07;;
6043;SDS011;3050;42.660;23.276;2024-02-21T09:52:41;5.00;;;3.80;;
6043;SDS011;3050;42.660;23.276;2024-02-21T09:55:11;4.67;;;3.37;;
6043;SDS011;3050;42.660;23.276;2024-02-21T09:57:42;5.23;;;3.70;;
6043;SDS011;3050;42.660;23.276;2024-02-21T10:00:13;5.10;;;3.90;;
6043;SDS011;3050;42.660;23.276;2024-02-21T10:02:46;5.27;;;4.30;;
6043;SDS011;3050;42.660;23.276;2024-02-21T10:05:14;6.50;;;3.87;;
6043;SDS011;3050;42.660;23.276;2024-02-21T10:07:45;3.30;;;3.00;;
6043;SDS011;3050;42.660;23.276;2024-02-21T10:10:14;3.20;;;2.97;;
6043;SDS011;3050;42.660;23.276;2024-02-21T10:12:52;3.10;;;2.80;;
6043;SDS011;3050;42.660;23.276;2024-02-21T10:15:20;3.93;;;3.40;;
6043;SDS011;3050;42.660;23.276;2024-02-21T10:17:58;4.53;;;3.50;;
6043;SDS011;3050;42.660;23.276;2024-02-21T10:20:26;3.53;;;2.93;;
6043;SDS011;3050;42.660;23.276;2024-02-21T10:23:00;3.10;;;2.83;;
6043;SDS011;3050;42.660;23.276;2024-02-21T10:25:28;2.67;;;2.43;;
6043;SDS011;3050;42.660;23.276;2024-02-21T10:27:58;5.83;;;3.33;;
6043;SDS011;3050;42.660;23.276;2024-02-21T10:30:28;4.73;;;3.43;;
6043;SDS011;3050;42.660;23.276;2024-02-21T10:32:55;3.27;;;3.07;;
6043;SDS011;3050;42.660;23.276;2024-02-21T10:35:26;2.73;;;2.60;;
6043;SDS011;3050;42.660;23.276;2024-02-21T10:37:54;4.30;;;3.30;;
6043;SDS011;3050;42.660;23.276;2024-02-21T10:40:22;3.40;;;3.03;;
6043;SDS011;3050;42.660;23.276;2024-02-21T10:42:50;3.27;;;2.77;;
6043;SDS011;3050;42.660;23.276;2024-02-21T10:45:21;3.90;;;3.00;;
6043;SDS011;3050;42.660;23.276;2024-02-21T10:47:49;3.20;;;2.90;;
6043;SDS011;3050;42.660;23.276;2024-02-21T10:50:20;2.70;;;2.40;;
6043;SDS011;3050;42.660;23.276;2024-02-21T10:52:51;2.83;;;2.20;;
6043;SDS011;3050;42.660;23.276;2024-02-21T10:55:25;3.20;;;3.00;;
6043;SDS011;3050;42.660;23.276;2024-02-21T10:57:53;2.43;;;2.23;;
6043;SDS011;3050;42.660;23.276;2024-02-21T11:00:24;3.40;;;2.70;;
6043;SDS011;3050;42.660;23.276;2024-02-21T11:02:56;2.43;;;2.23;;
6043;SDS011;3050;42.660;23.276;2024-02-21T11:05:23;3.10;;;2.90;;
6043;SDS011;3050;42.660;23.276;2024-02-21T11:07:53;3.23;;;2.57;;
6043;SDS011;3050;42.660;23.276;2024-02-21T11:10:20;2.17;;;2.07;;
6043;SDS011;3050;42.660;23.276;2024-02-21T11:12:49;2.00;;;1.90;;
6043;SDS011;3050;42.660;23.276;2024-02-21T11:15:17;2.53;;;1.97;;
6043;SDS011;3050;42.660;23.276;2024-02-21T11:17:55;1.73;;;1.70;;
6043;SDS011;3050;42.660;23.276;2024-02-21T11:20:31;1.90;;;1.80;;
6043;SDS011;3050;42.660;23.276;2024-02-21T11:22:59;4.07;;;2.40;;
6043;SDS011;3050;42.660;23.276;2024-02-21T11:25:28;3.07;;;1.90;;
6043;SDS011;3050;42.660;23.276;2024-02-21T11:27:59;2.73;;;2.13;;
6043;SDS011;3050;42.660;23.276;2024-02-21T11:30:27;2.10;;;1.83;;
6043;SDS011;3050;42.660;23.276;2024-02-21T11:33:01;3.57;;;2.13;;
6043;SDS011;3050;42.660;23.276;2024-02-21T11:35:32;3.47;;;2.20;;
6043;SDS011;3050;42.660;23.276;2024-02-21T11:38:12;2.60;;;2.40;;
6043;SDS011;3050;42.660;23.276;2024-02-21T11:40:44;3.70;;;2.20;;
6043;SDS011;3050;42.660;23.276;2024-02-21T11:43:12;4.27;;;1.57;;
6043;SDS011;3050;42.660;23.276;2024-02-21T11:45:40;5.13;;;2.47;;
6043;SDS011;3050;42.660;23.276;2024-02-21T11:48:10;1.80;;;1.70;;
6043;SDS011;3050;42.660;23.276;2024-02-21T11:50:37;1.70;;;1.60;;
6043;SDS011;3050;42.660;23.276;2024-02-21T11:53:05;2.10;;;2.00;;
6043;SDS011;3050;42.660;23.276;2024-02-21T11:55:34;2.20;;;2.00;;
6043;SDS011;3050;42.660;23.276;2024-02-21T11:58:04;3.13;;;2.87;;
6043;SDS011;3050;42.660;23.276;2024-02-21T12:00:35;2.50;;;2.23;;
6043;SDS011;3050;42.660;23.276;2024-02-21T12:03:06;3.53;;;1.93;;
6043;SDS011;3050;42.660;23.276;2024-02-21T12:05:37;2.60;;;2.00;;
6043;SDS011;3050;42.660;23.276;2024-02-21T12:08:07;2.63;;;2.43;;
6043;SDS011;3050;42.660;23.276;2024-02-21T12:10:35;2.47;;;1.87;;
6043;SDS011;3050;42.660;23.276;2024-02-21T12:13:06;2.73;;;2.50;;
6043;SDS011;3050;42.660;23.276;2024-02-21T12:15:33;9.70;;;4.43;;
6043;SDS011;3050;42.660;23.276;2024-02-21T12:18:02;7.90;;;3.63;;
6043;SDS011;3050;42.660;23.276;2024-02-21T12:20:30;3.70;;;2.47;;
6043;SDS011;3050;42.660;23.276;2024-02-21T12:23:03;3.60;;;2.53;;
6043;SDS011;3050;42.660;23.276;2024-02-21T12:25:33;2.53;;;2.17;;
6043;SDS011;3050;42.660;23.276;2024-02-21T12:28:09;2.13;;;1.93;;
6043;SDS011;3050;42.660;23.276;2024-02-21T12:30:38;2.73;;;2.17;;
6043;SDS011;3050;42.660;23.276;2024-02-21T12:33:08;2.60;;;2.40;;
6043;SDS011;3050;42.660;23.276;2024-02-21T12:35:39;7.27;;;2.70;;
6043;SDS011;3050;42.660;23.276;2024-02-21T12:38:13;2.80;;;2.57;;
6043;SDS011;3050;42.660;23.276;2024-02-21T12:40:40;2.73;;;2.53;;
6043;SDS011;3050;42.660;23.276;2024-02-21T12:43:07;2.67;;;2.10;;
6043;SDS011;3050;42.660;23.276;2024-02-21T12:45:35;2.00;;;1.90;;
6043;SDS011;3050;42.660;23.276;2024-02-21T12:48:04;2.70;;;2.50;;
6043;SDS011;3050;42.660;23.276;2024-02-21T12:50:34;2.43;;;2.00;;
6043;SDS011;3050;42.660;23.276;2024-02-21T12:53:03;4.00;;;3.10;;
6043;SDS011;3050;42.660;23.276;2024-02-21T12:55:34;5.70;;;2.83;;
6043;SDS011;3050;42.660;23.276;2024-02-21T12:58:05;2.27;;;1.80;;
6043;SDS011;3050;42.660;23.276;2024-02-21T13:00:32;2.53;;;1.80;;
6043;SDS011;3050;42.660;23.276;2024-02-21T13:03:00;2.47;;;2.20;;
6043;SDS011;3050;42.660;23.276;2024-02-21T13:05:31;2.30;;;2.07;;
6043;SDS011;3050;42.660;23.276;2024-02-21T13:08:00;1.77;;;1.67;;
6043;SDS011;3050;42.660;23.276;2024-02-21T13:10:31;2.17;;;2.07;;
6043;SDS011;3050;42.660;23.276;2024-02-21T13:13:03;3.30;;;2.47;;
6043;SDS011;3050;42.660;23.276;2024-02-21T13:15:31;2.20;;;2.10;;
6043;SDS011;3050;42.660;23.276;2024-02-21T13:18:00;1.87;;;1.77;;
6043;SDS011;3050;42.660;23.276;2024-02-21T13:20:29;2.90;;;2.50;;
6043;SDS011;3050;42.660;23.276;2024-02-21T13:22:58;3.17;;;2.40;;
6043;SDS011;3050;42.660;23.276;2024-02-21T13:25:25;4.17;;;2.17;;
6043;SDS011;3050;42.660;23.276;2024-02-21T13:27:52;4.47;;;2.20;;
6043;SDS011;3050;42.660;23.276;2024-02-21T13:30:22;2.93;;;2.50;;
6043;SDS011;3050;42.660;23.276;2024-02-21T13:32:50;3.13;;;2.93;;
6043;SDS011;3050;42.660;23.276;2024-02-21T13:35:19;3.80;;;2.53;;
6043;SDS011;3050;42.660;23.276;2024-02-21T13:37:47;4.97;;;2.87;;
6043;SDS011;3050;42.660;23.276;2024-02-21T13:40:16;2.07;;;1.97;;
6043;SDS011;3050;42.660;23.276;2024-02-21T13:42:44;2.47;;;2.23;;
6043;SDS011;3050;42.660;23.276;2024-02-21T13:45:13;2.30;;;2.10;;
6043;SDS011;3050;42.660;23.276;2024-02-21T13:47:43;4.37;;;2.27;;
6043;SDS011;3050;42.660;23.276;2024-02-21T13:50:10;2.27;;;2.17;;
6043;SDS011;3050;42.660;23.276;2024-02-21T13:52:39;2.03;;;1.70;;
6043;SDS011;3050;42.660;23.276;2024-02-21T13:55:15;2.17;;;2.03;;
6043;SDS011;3050;42.660;23.276;2024-02-21T13:57:51;1.60;;;1.50;;
6043;SDS011;3050;42.660;23.276;2024-02-21T14:00:20;2.10;;;2.00;;
6043;SDS011;3050;42.660;23.276;2024-02-21T14:02:49;2.80;;;2.13;;
6043;SDS011;3050;42.660;23.276;2024-02-21T14:05:17;3.03;;;1.70;;
6043;SDS011;3050;42.660;23.276;2024-02-21T14:07:45;1.90;;;1.80;;
6043;SDS011;3050;42.660;23.276;2024-02-21T14:10:15;1.93;;;1.83;;
6043;SDS011;3050;42.660;23.276;2024-02-21T14:12:45;2.33;;;2.23;;
6043;SDS011;3050;42.660;23.276;2024-02-21T14:15:14;2.73;;;2.43;;
6043;SDS011;3050;42.660;23.276;2024-02-21T14:17:44;2.50;;;1.83;;
6043;SDS011;3050;42.660;23.276;2024-02-21T14:20:14;3.13;;;1.60;;
6043;SDS011;3050;42.660;23.276;2024-02-21T14:22:42;2.47;;;2.13;;
6043;SDS011;3050;42.660;23.276;2024-02-21T14:25:09;2.87;;;2.63;;
6043;SDS011;3050;42.660;23.276;2024-02-21T14:27:38;2.60;;;2.40;;
6043;SDS011;3050;42.660;23.276;2024-02-21T14:30:09;1.83;;;1.73;;
6043;SDS011;3050;42.660;23.276;2024-02-21T14:32:37;2.63;;;2.40;;
6043;SDS011;3050;42.660;23.276;2024-02-21T14:35:06;3.67;;;2.53;;
6043;SDS011;3050;42.660;23.276;2024-02-21T14:37:36;2.20;;;2.10;;
6043;SDS011;3050;42.660;23.276;2024-02-21T14:40:04;2.73;;;2.53;;
6043;SDS011;3050;42.660;23.276;2024-02-21T14:42:33;3.10;;;2.40;;
6043;SDS011;3050;42.660;23.276;2024-02-21T14:45:01;2.57;;;2.30;;
6043;SDS011;3050;42.660;23.276;2024-02-21T14:47:31;4.83;;;2.30;;
6043;SDS011;3050;42.660;23.276;2024-02-21T14:50:00;6.60;;;2.30;;
6043;SDS011;3050;42.660;23.276;2024-02-21T14:52:30;2.73;;;2.50;;
6043;SDS011;3050;42.660;23.276;2024-02-21T14:54:59;5.67;;;3.07;;
6043;SDS011;3050;42.660;23.276;2024-02-21T14:57:30;10.47;;;4.83;;
6043;SDS011;3050;42.660;23.276;2024-02-21T14:59:59;3.53;;;3.23;;
6043;SDS011;3050;42.660;23.276;2024-02-21T15:02:26;4.50;;;3.33;;
6043;SDS011;3050;42.660;23.276;2024-02-21T15:04:54;3.33;;;2.90;;
6043;SDS011;3050;42.660;23.276;2024-02-21T15:07:22;3.30;;;3.00;;
6043;SDS011;3050;42.660;23.276;2024-02-21T15:09:52;2.20;;;2.00;;
6043;SDS011;3050;42.660;23.276;2024-02-21T15:12:24;2.27;;;1.83;;